Observation data for Brownfield on 04/25/2019      Previous  Date  Next       Current Mesonet Observations  Soil Data  Daily Summary Page  Observations in Plain Language
KBWS 250500Z 20007KT 12/10 A2992 RMK A01 T01170102  RH  092%=      5-min Rain = 0
KBWS 250505Z 20008KT 12/10 A2992 RMK A01 T01160101  RH  092%=      5-min Rain = 0
KBWS 250510Z 19009KT 12/10 A2992 RMK A01 T01160101  RH  092%=      5-min Rain = 0
KBWS 250515Z 19008KT 12/10 A2992 RMK A01 T01170100  RH  091%=      5-min Rain = 0
KBWS 250520Z 20008KT 12/10 A2992 RMK A01 T01180100  RH  090%=      5-min Rain = 0
KBWS 250525Z 20007KT 12/10 A2992 RMK A01 T01180099  RH  090%=      5-min Rain = 0
KBWS 250530Z 21006KT 12/10 A2992 RMK A01 T01150098  RH  091%=      5-min Rain = 0
KBWS 250535Z 21006KT 11/10 A2993 RMK A01 T01140098  RH  091%=      5-min Rain = 0
KBWS 250540Z 21006KT 11/10 A2993 RMK A01 T01130097  RH  092%=      5-min Rain = 0
KBWS 250545Z 21006KT 11/10 A2993 RMK A01 T01110097  RH  092%=      5-min Rain = 0
KBWS 250550Z 21006KT 11/10 A2992 RMK A01 T01100096  RH  093%=      5-min Rain = 0
KBWS 250555Z 20006KT 11/10 A2992 RMK A01 T01090095  RH  093%=      5-min Rain = 0
KBWS 250600Z 20006KT 11/10 A2992 RMK A01 T01080095  RH  094%=      5-min Rain = 0
KBWS 250605Z 21006KT 11/10 A2992 RMK A01 T01080096  RH  094%=      5-min Rain = 0
KBWS 250610Z 21006KT 11/10 A2992 RMK A01 T01070096  RH  094%=      5-min Rain = 0
KBWS 250615Z 21006KT 11/10 A2992 RMK A01 T01070096  RH  094%=      5-min Rain = 0
KBWS 250620Z 21006KT 11/10 A2992 RMK A01 T01060095  RH  095%=      5-min Rain = 0
KBWS 250625Z 21006KT 11/10 A2992 RMK A01 T01050095  RH  095%=      5-min Rain = 0
KBWS 250630Z 21007KT 11/10 A2992 RMK A01 T01050095  RH  095%=      5-min Rain = 0
KBWS 250635Z 21007KT 10/10 A2992 RMK A01 T01040095  RH  095%=      5-min Rain = 0
KBWS 250640Z 22007KT 11/10 A2992 RMK A01 T01050095  RH  095%=      5-min Rain = 0
KBWS 250645Z 22008KT 11/10 A2992 RMK A01 T01070096  RH  095%=      5-min Rain = 0
KBWS 250650Z 22008KT 11/10 A2992 RMK A01 T01080095  RH  094%=      5-min Rain = 0
KBWS 250655Z 22008KT 11/10 A2991 RMK A01 T01080095  RH  093%=      5-min Rain = 0
KBWS 250700Z 23008KT 11/09 A2992 RMK A01 T01080094  RH  092%=      5-min Rain = 0
KBWS 250705Z 23009KT 11/09 A2991 RMK A01 T01090093  RH  091%=      5-min Rain = 0
KBWS 250710Z 24009KT 11/09 A2991 RMK A01 T01100091  RH  090%=      5-min Rain = 0
KBWS 250715Z 24009KT 11/09 A2991 RMK A01 T01100090  RH  089%=      5-min Rain = 0
KBWS 250720Z 24009KT 11/09 A2991 RMK A01 T01090089  RH  089%=      5-min Rain = 0
KBWS 250725Z 24008KT 11/09 A2991 RMK A01 T01090088  RH  089%=      5-min Rain = 0
KBWS 250730Z 24009KT 11/09 A2991 RMK A01 T01070087  RH  089%=      5-min Rain = 0
KBWS 250735Z 24009KT 11/09 A2991 RMK A01 T01070087  RH  089%=      5-min Rain = 0
KBWS 250740Z 24009KT 11/09 A299 RMK A01 T01060086  RH  089%=      5-min Rain = 0
KBWS 250745Z 24009KT 11/09 A299 RMK A01 T01060085  RH  089%=      5-min Rain = 0
KBWS 250750Z 25009KT 10/09 A299 RMK A01 T01040085  RH  089%=      5-min Rain = 0
KBWS 250755Z 25008KT 10/08 A299 RMK A01 T01020084  RH  090%=      5-min Rain = 0
KBWS 250800Z 25009KT 10/08 A299 RMK A01 T01010084  RH  090%=      5-min Rain = 0
KBWS 250805Z 26010KT 10/08 A299 RMK A01 T01020084  RH  090%=      5-min Rain = 0
KBWS 250810Z 25009KT 10/08 A299 RMK A01 T01020084  RH  089%=      5-min Rain = 0
KBWS 250815Z 25009KT 10/08 A299 RMK A01 T01010083  RH  090%=      5-min Rain = 0
KBWS 250820Z 25009KT 10/08 A299 RMK A01 T01000083  RH  090%=      5-min Rain = 0
KBWS 250825Z 26009KT 10/08 A299 RMK A01 T00990082  RH  091%=      5-min Rain = 0
KBWS 250830Z 25008KT 10/08 A2989 RMK A01 T01000082  RH  090%=      5-min Rain = 0
KBWS 250835Z 25008KT 10/08 A2989 RMK A01 T00980081  RH  091%=      5-min Rain = 0
KBWS 250840Z 25007KT 10/08 A2989 RMK A01 T00970081  RH  091%=      5-min Rain = 0
KBWS 250845Z 25008KT 10/08 A2989 RMK A01 T00960081  RH  092%=      5-min Rain = 0
KBWS 250850Z 25008KT 10/08 A2989 RMK A01 T00960081  RH  092%=      5-min Rain = 0
KBWS 250855Z 26008KT 10/08 A2989 RMK A01 T00960081  RH  091%=      5-min Rain = 0
KBWS 250900Z 26008KT 10/08 A2989 RMK A01 T00970081  RH  091%=      5-min Rain = 0
KBWS 250905Z 26008KT 10/08 A2989 RMK A01 T00980082  RH  091%=      5-min Rain = 0
KBWS 250910Z 26008KT 10/08 A2989 RMK A01 T01000083  RH  090%=      5-min Rain = 0
KBWS 250915Z 26008KT 10/08 A2989 RMK A01 T01000082  RH  090%=      5-min Rain = 0
KBWS 250920Z 26008KT 10/08 A2989 RMK A01 T01000082  RH  090%=      5-min Rain = 0
KBWS 250925Z 26008KT 10/08 A2989 RMK A01 T01000082  RH  090%=      5-min Rain = 0
KBWS 250930Z 26008KT 10/08 A299 RMK A01 T01000082  RH  090%=      5-min Rain = 0
KBWS 250935Z 27008KT 10/08 A299 RMK A01 T01000082  RH  090%=      5-min Rain = 0
KBWS 250940Z 27008KT 10/08 A299 RMK A01 T00990082  RH  091%=      5-min Rain = 0
KBWS 250945Z 27007KT 10/08 A299 RMK A01 T00980082  RH  091%=      5-min Rain = 0
KBWS 250950Z 26008KT 10/08 A299 RMK A01 T00970081  RH  091%=      5-min Rain = 0
KBWS 250955Z 26008KT 10/08 A299 RMK A01 T00980082  RH  091%=      5-min Rain = 0
KBWS 251000Z 26009KT 10/08 A299 RMK A01 T00980082  RH  091%=      5-min Rain = 0
KBWS 251005Z 26009KT 10/08 A299 RMK A01 T00980082  RH  091%=      5-min Rain = 0
KBWS 251010Z 27008KT 10/08 A299 RMK A01 T00970081  RH  092%=      5-min Rain = 0
KBWS 251015Z 27009KT 10/08 A299 RMK A01 T00980083  RH  092%=      5-min Rain = 0
KBWS 251020Z 27008KT 10/08 A299 RMK A01 T00990083  RH  091%=      5-min Rain = 0
KBWS 251025Z 27008KT 10/08 A299 RMK A01 T00990083  RH  091%=      5-min Rain = 0
KBWS 251030Z 27008KT 10/08 A299 RMK A01 T01000084  RH  091%=      5-min Rain = 0
KBWS 251035Z 26007KT 10/08 A299 RMK A01 T00990083  RH  091%=      5-min Rain = 0
KBWS 251040Z 26008KT 10/08 A299 RMK A01 T00980083  RH  091%=      5-min Rain = 0
KBWS 251045Z 26008KT 10/08 A299 RMK A01 T00990083  RH  091%=      5-min Rain = 0
KBWS 251050Z 27008KT 10/08 A2991 RMK A01 T01000084  RH  091%=      5-min Rain = 0
KBWS 251055Z 26008KT 10/08 A2991 RMK A01 T01000083  RH  091%=      5-min Rain = 0
KBWS 251100Z 27008KT 10/08 A2991 RMK A01 T01000083  RH  090%=      5-min Rain = 0
KBWS 251105Z 27007KT 10/08 A2991 RMK A01 T01000083  RH  091%=      5-min Rain = 0
KBWS 251110Z 27008KT 10/08 A2991 RMK A01 T00990082  RH  091%=      5-min Rain = 0
KBWS 251115Z 27008KT 10/08 A2991 RMK A01 T00980082  RH  091%=      5-min Rain = 0
KBWS 251120Z 27008KT 10/08 A2991 RMK A01 T00990082  RH  090%=      5-min Rain = 0
KBWS 251125Z 27008KT 10/08 A2991 RMK A01 T00980081  RH  091%=      5-min Rain = 0
KBWS 251130Z 27007KT 10/08 A2991 RMK A01 T00980081  RH  091%=      5-min Rain = 0
KBWS 251135Z 27007KT 10/08 A2991 RMK A01 T00980080  RH  090%=      5-min Rain = 0
KBWS 251140Z 27007KT 10/08 A2991 RMK A01 T00970080  RH  090%=      5-min Rain = 0
KBWS 251145Z 27007KT 10/08 A2991 RMK A01 T00970079  RH  090%=      5-min Rain = 0
KBWS 251150Z 27006KT 10/08 A2991 RMK A01 T00970079  RH  090%=      5-min Rain = 0
KBWS 251155Z 26007KT 10/08 A2991 RMK A01 T00960078  RH  090%=      5-min Rain = 0
KBWS 251200Z 27007KT 10/08 A2991 RMK A01 T00960078  RH  090%=      5-min Rain = 0
KBWS 251205Z 27006KT 09/08 A2991 RMK A01 T00940077  RH  090%=      5-min Rain = 0
KBWS 251210Z 27006KT 09/08 A2992 RMK A01 T00930077  RH  091%=      5-min Rain = 0
KBWS 251215Z 27007KT 09/08 A2992 RMK A01 T00940077  RH  091%=      5-min Rain = 0
KBWS 251220Z 27007KT 09/08 A2992 RMK A01 T00940077  RH  091%=      5-min Rain = 0
KBWS 251225Z 27006KT 10/08 A2992 RMK A01 T00960078  RH  090%=      5-min Rain = 0
KBWS 251230Z 27006KT 10/08 A2992 RMK A01 T00970078  RH  089%=      5-min Rain = 0
KBWS 251235Z 27006KT 10/08 A2992 RMK A01 T00980079  RH  089%=      5-min Rain = 0
KBWS 251240Z 26005KT 10/08 A2993 RMK A01 T01000080  RH  089%=      5-min Rain = 0
KBWS 251245Z 26006KT 10/08 A2993 RMK A01 T01020080  RH  088%=      5-min Rain = 0
KBWS 251250Z 27005KT 10/08 A2993 RMK A01 T01040082  RH  088%=      5-min Rain = 0
KBWS 251255Z 27006KT 11/08 A2993 RMK A01 T01070084  RH  087%=      5-min Rain = 0
KBWS 251300Z 27006KT 11/09 A2993 RMK A01 T01100086  RH  086%=      5-min Rain = 0
KBWS 251305Z 28006KT 11/09 A2994 RMK A01 T01130088  RH  086%=      5-min Rain = 0
KBWS 251310Z 28007KT 12/09 A2994 RMK A01 T01170089  RH  084%=      5-min Rain = 0
KBWS 251315Z 28007KT 12/09 A2994 RMK A01 T01200089  RH  083%=      5-min Rain = 0
KBWS 251320Z 28008KT 12/09 A2994 RMK A01 T01240092  RH  082%=      5-min Rain = 0
KBWS 251325Z 28008KT 13/09 A2994 RMK A01 T01270092  RH  080%=      5-min Rain = 0
KBWS 251330Z 28009KT 13/09 A2995 RMK A01 T01290093  RH  080%=      5-min Rain = 0
KBWS 251335Z 28009KT 13/10 A2995 RMK A01 T01320095  RH  080%=      5-min Rain = 0
KBWS 251340Z 28009KT 14/10 A2995 RMK A01 T01350097  RH  079%=      5-min Rain = 0
KBWS 251345Z 28009KT 14/10 A2995 RMK A01 T01400099  RH  078%=      5-min Rain = 0
KBWS 251350Z 28009KT 14/10 A2995 RMK A01 T01440100  RH  076%=      5-min Rain = 0
KBWS 251355Z 28008KT 15/10 A2995 RMK A01 T01490102  RH  075%=      5-min Rain = 0
KBWS 251400Z 28008KT 15/10 A2995 RMK A01 T01540104  RH  073%=      5-min Rain = 0
KBWS 251405Z 28008KT 16/11 A2995 RMK A01 T01600107  RH  072%=      5-min Rain = 0
KBWS 251410Z 28007KT 17/11 A2995 RMK A01 T01650109  RH  071%=      5-min Rain = 0
KBWS 251415Z 29007KT 17/11 A2995 RMK A01 T01700108  RH  068%=      5-min Rain = 0
KBWS 251420Z 29009KT 17/10 A2995 RMK A01 T01730104  RH  065%=      5-min Rain = 0
KBWS 251425Z 28008KT 18/11 A2995 RMK A01 T01770105  RH  064%=      5-min Rain = 0
KBWS 251430Z 28008KT 18/11 A2995 RMK A01 T01820108  RH  063%=      5-min Rain = 0
KBWS 251435Z 28007KT 19/11 A2995 RMK A01 T01860111  RH  063%=      5-min Rain = 0
KBWS 251445Z 28009KT 19/11 A2996 RMK A01 T01930110  RH  060%=      5-min Rain = 0
KBWS 251450Z 28009KT 20/11 A2996 RMK A01 T01950110  RH  059%=      5-min Rain = 0
KBWS 251455Z 28010KT 20/11 A2995 RMK A01 T02000105  RH  055%=      5-min Rain = 0
KBWS 251500Z 27010KT 20/10 A2995 RMK A01 T02020103  RH  054%=      5-min Rain = 0
KBWS 251505Z 27010KT 21/10 A2996 RMK A01 T02060103  RH  052%=      5-min Rain = 0
KBWS 251510Z 27010KT 21/10 A2996 RMK A01 T02100098  RH  049%=      5-min Rain = 0
KBWS 251515Z 27010KT 21/09 A2996 RMK A01 T02140093  RH  047%=      5-min Rain = 0
KBWS 251520Z 27009KT 22/10 A2996 RMK A01 T02190098  RH  047%=      5-min Rain = 0
KBWS 251525Z 27009KT 22/09 A2996 RMK A01 T02200094  RH  045%=      5-min Rain = 0
KBWS 251530Z 27009KT 23/09 A2996 RMK A01 T02250094  RH  044%=      5-min Rain = 0
KBWS 251535Z 28009KT 23/09 A2996 RMK A01 T02260094  RH  044%=      5-min Rain = 0
KBWS 251540Z 28009KT 23/10 A2996 RMK A01 T02280095  RH  044%=      5-min Rain = 0
KBWS 251545Z 29012KT 23/09 A2996 RMK A01 T02290089  RH  041%=      5-min Rain = 0
KBWS 251550Z 27009KT 23/09 A2996 RMK A01 T02320091  RH  041%=      5-min Rain = 0
KBWS 251555Z 28009KT 23/09 A2997 RMK A01 T02340092  RH  041%=      5-min Rain = 0
KBWS 251600Z 28010KT 23/09 A2997 RMK A01 T02340090  RH  041%=      5-min Rain = 0
KBWS 251605Z 28010G15KT 24/09 A2997 RMK A01 T02360089  RH  040%=      5-min Rain = 0
KBWS 251610Z 29011KT 24/09 A2997 RMK A01 T02370085  RH  039%=      5-min Rain = 0
KBWS 251615Z 30011KT 24/09 A2997 RMK A01 T02390088  RH  039%=      5-min Rain = 0
KBWS 251620Z 31011KT 24/09 A2997 RMK A01 T02400091  RH  039%=      5-min Rain = 0
KBWS 251625Z 30009KT 24/09 A2997 RMK A01 T02410093  RH  040%=      5-min Rain = 0
KBWS 251630Z 29009KT 25/10 A2997 RMK A01 T02450095  RH  039%=      5-min Rain = 0
KBWS 251635Z 31010KT 25/10 A2997 RMK A01 T02460096  RH  039%=      5-min Rain = 0
KBWS 251640Z 32010KT 25/09 A2997 RMK A01 T02470094  RH  039%=      5-min Rain = 0
KBWS 251645Z 32010KT 25/10 A2997 RMK A01 T02460095  RH  039%=      5-min Rain = 0
KBWS 251650Z 31009KT 25/10 A2998 RMK A01 T02490097  RH  039%=      5-min Rain = 0
KBWS 251655Z 32009KT 25/10 A2998 RMK A01 T02520099  RH  039%=      5-min Rain = 0
KBWS 251700Z 34009KT 25/10 A2997 RMK A01 T02530097  RH  038%=      5-min Rain = 0
KBWS 251705Z 32008KT 26/10 A2998 RMK A01 T02560100  RH  038%=      5-min Rain = 0
KBWS 251710Z 32008KT 26/10 A2998 RMK A01 T02570098  RH  037%=      5-min Rain = 0
KBWS 251715Z 33007G12KT 26/10 A2998 RMK A01 T02610095  RH  036%=      5-min Rain = 0
KBWS 251720Z 33007G12KT 26/08 A2998 RMK A01 T02640083  RH  032%=      5-min Rain = 0
KBWS 251725Z 33008G13KT 27/07 A2998 RMK A01 T02660073  RH  030%=      5-min Rain = 0
KBWS 251730Z 35007KT 27/08 A2998 RMK A01 T02650077  RH  031%=      5-min Rain = 0
KBWS 251735Z 36007G12KT 27/07 A2998 RMK A01 T02660073  RH  030%=      5-min Rain = 0
KBWS 251740Z 01007KT 27/07 A2998 RMK A01 T02660073  RH  030%=      5-min Rain = 0
KBWS 251745Z 00007KT 27/07 A2998 RMK A01 T02690074  RH  029%=      5-min Rain = 0
KBWS 251750Z 35007KT 27/07 A2999 RMK A01 T02700071  RH  029%=      5-min Rain = 0
KBWS 251755Z 01009KT 27/06 A2999 RMK A01 T02710060  RH  027%=      5-min Rain = 0
KBWS 251800Z 36008KT 27/06 A2999 RMK A01 T02710060  RH  027%=      5-min Rain = 0
KBWS 251805Z 35007G16KT 27/06 A2999 RMK A01 T02730063  RH  027%=      5-min Rain = 0
KBWS 251810Z 01011KT 27/07 A2999 RMK A01 T02740067  RH  027%=      5-min Rain = 0
KBWS 251815Z 35010KT 27/06 A2999 RMK A01 T02740063  RH  027%=      5-min Rain = 0
KBWS 251820Z 33010KT 27/06 A2999 RMK A01 T02740061  RH  026%=      5-min Rain = 0
KBWS 251825Z 36011G17KT 28/05 A2999 RMK A01 T02750053  RH  025%=      5-min Rain = 0
KBWS 251830Z 36010G18KT 28/04 A2999 RMK A01 T02750040  RH  022%=      5-min Rain = 0
KBWS 251835Z 01013KT 28/06 A2999 RMK A01 T02790061  RH  025%=      5-min Rain = 0
KBWS 251840Z 01013KT 28/07 A2999 RMK A01 T02750068  RH  027%=      5-min Rain = 0
KBWS 251845Z 02016G22KT 27/08 A2999 RMK A01 T02740075  RH  029%=      5-min Rain = 0
KBWS 251850Z 03013G18KT 27/08 A2999 RMK A01 T02700078  RH  030%=      5-min Rain = 0
KBWS 251855Z 02016G21KT 27/08 A30 RMK A01 T02730081  RH  030%=      5-min Rain = 0
KBWS 251900Z 02016G21KT 27/08 A30 RMK A01 T02720077  RH  030%=      5-min Rain = 0
KBWS 251905Z 02013G20KT 27/08 A30 RMK A01 T02740078  RH  029%=      5-min Rain = 0
KBWS 251910Z 02016G24KT 27/08 A30 RMK A01 T02730081  RH  030%=      5-min Rain = 0
KBWS 251915Z 01015G23KT 27/08 A30 RMK A01 T02730079  RH  030%=      5-min Rain = 0
KBWS 251920Z 04016G21KT 27/08 A30 RMK A01 T02680076  RH  030%=      5-min Rain = 0
KBWS 251925Z 03016G23KT 27/08 A30 RMK A01 T02720079  RH  030%=      5-min Rain = 0
KBWS 251930Z 02015G21KT 27/08 A30 RMK A01 T02740077  RH  029%=      5-min Rain = 0
KBWS 251935Z 01014G20KT 27/08 A30 RMK A01 T02730075  RH  029%=      5-min Rain = 0
KBWS 251940Z 03014G20KT 28/08 A30 RMK A01 T02750075  RH  029%=      5-min Rain = 0
KBWS 251945Z 02014G20KT 27/07 A3001 RMK A01 T02740068  RH  027%=      5-min Rain = 0
KBWS 251950Z 01013G19KT 27/07 A3001 RMK A01 T02740070  RH  028%=      5-min Rain = 0
KBWS 251955Z 01016G21KT 27/07 A3001 RMK A01 T02740073  RH  028%=      5-min Rain = 0
KBWS 252000Z 00017G22KT 27/08 A3001 RMK A01 T02740075  RH  029%=      5-min Rain = 0
KBWS 252005Z 03014G21KT 27/07 A3001 RMK A01 T02710073  RH  029%=      5-min Rain = 0
KBWS 252010Z 02016G23KT 27/07 A3001 RMK A01 T02730072  RH  029%=      5-min Rain = 0
KBWS 252015Z 02015G21KT 27/08 A3002 RMK A01 T02720076  RH  029%=      5-min Rain = 0
KBWS 252020Z 02012G17KT 27/07 A3002 RMK A01 T02740073  RH  029%=      5-min Rain = 0
KBWS 252025Z 02015G22KT 27/07 A3002 RMK A01 T02740071  RH  028%=      5-min Rain = 0
KBWS 252030Z 02014G23KT 27/07 A3002 RMK A01 T02710071  RH  029%=      5-min Rain = 0
KBWS 252035Z 02015G22KT 27/07 A3002 RMK A01 T02720068  RH  028%=      5-min Rain = 0
KBWS 252040Z 02013G20KT 27/07 A3002 RMK A01 T02720068  RH  028%=      5-min Rain = 0
KBWS 252045Z 01014G19KT 27/06 A3002 RMK A01 T02710064  RH  027%=      5-min Rain = 0
KBWS 252050Z 02015G20KT 27/06 A3002 RMK A01 T02690060  RH  027%=      5-min Rain = 0
KBWS 252055Z 03014G20KT 27/07 A3002 RMK A01 T02710065  RH  027%=      5-min Rain = 0
KBWS 252100Z 03014G20KT 27/06 A3002 RMK A01 T02700056  RH  026%=      5-min Rain = 0
KBWS 252105Z 05014G19KT 27/06 A3002 RMK A01 T02690062  RH  027%=      5-min Rain = 0
KBWS 252110Z 02013KT 27/06 A3002 RMK A01 T02700058  RH  026%=      5-min Rain = 0
KBWS 252115Z 04014G19KT 27/06 A3002 RMK A01 T02720060  RH  026%=      5-min Rain = 0
KBWS 252120Z 03014KT 27/06 A3002 RMK A01 T02690059  RH  026%=      5-min Rain = 0
KBWS 252125Z 02015KT 27/06 A3002 RMK A01 T02710058  RH  026%=      5-min Rain = 0
KBWS 252130Z 04013G18KT 27/07 A3002 RMK A01 T02710065  RH  027%=      5-min Rain = 0
KBWS 252135Z 02013KT 27/07 A3002 RMK A01 T02720067  RH  028%=      5-min Rain = 0
KBWS 252140Z 02016G22KT 27/07 A3002 RMK A01 T02710067  RH  028%=      5-min Rain = 0
KBWS 252145Z 02012KT 27/08 A3002 RMK A01 T02700075  RH  029%=      5-min Rain = 0
KBWS 252150Z 03015G20KT 27/07 A3002 RMK A01 T02720072  RH  028%=      5-min Rain = 0
KBWS 252155Z 04013G20KT 27/07 A3002 RMK A01 T02700066  RH  028%=      5-min Rain = 0
KBWS 252200Z 02014G19KT 27/07 A3002 RMK A01 T02690068  RH  028%=      5-min Rain = 0
KBWS 252205Z 04014G19KT 27/07 A3002 RMK A01 T02680067  RH  028%=      5-min Rain = 0
KBWS 252210Z 03016G21KT 27/07 A3002 RMK A01 T02670071  RH  029%=      5-min Rain = 0
KBWS 252215Z 04015G22KT 27/07 A3002 RMK A01 T02660067  RH  029%=      5-min Rain = 0
KBWS 252220Z 03014G19KT 27/07 A3002 RMK A01 T02680068  RH  028%=      5-min Rain = 0
KBWS 252225Z 04014KT 27/08 A3002 RMK A01 T02680075  RH  030%=      5-min Rain = 0
KBWS 252230Z 03014KT 27/07 A3003 RMK A01 T02670070  RH  029%=      5-min Rain = 0
KBWS 252235Z 05014G20KT 27/07 A3003 RMK A01 T02660069  RH  029%=      5-min Rain = 0
KBWS 252240Z 04013G18KT 27/07 A3003 RMK A01 T02670072  RH  029%=      5-min Rain = 0
KBWS 252245Z 03015KT 27/07 A3003 RMK A01 T02670072  RH  029%=      5-min Rain = 0
KBWS 252250Z 04012G19KT 27/07 A3003 RMK A01 T02650071  RH  029%=      5-min Rain = 0
KBWS 252255Z 03014KT 27/08 A3003 RMK A01 T02650075  RH  030%=      5-min Rain = 0
KBWS 252300Z 04014G19KT 27/07 A3003 RMK A01 T02650071  RH  030%=      5-min Rain = 0
KBWS 252305Z 06013G19KT 26/08 A3003 RMK A01 T02630075  RH  031%=      5-min Rain = 0
KBWS 252310Z 04013G18KT 26/07 A3004 RMK A01 T02630072  RH  030%=      5-min Rain = 0
KBWS 252315Z 04013G18KT 26/08 A3004 RMK A01 T02640076  RH  031%=      5-min Rain = 0
KBWS 252320Z 05015KT 26/08 A3004 RMK A01 T02610078  RH  032%=      5-min Rain = 0
KBWS 252325Z 04013KT 26/08 A3004 RMK A01 T02600075  RH  031%=      5-min Rain = 0
KBWS 252330Z 04014G19KT 26/08 A3004 RMK A01 T02610077  RH  031%=      5-min Rain = 0
KBWS 252335Z 05016G22KT 26/08 A3005 RMK A01 T02590079  RH  032%=      5-min Rain = 0
KBWS 252340Z 06014G19KT 26/08 A3005 RMK A01 T02560079  RH  033%=      5-min Rain = 0
KBWS 252345Z 05014G20KT 26/08 A3005 RMK A01 T02550077  RH  033%=      5-min Rain = 0
KBWS 252350Z 05014KT 26/08 A3005 RMK A01 T02550075  RH  032%=      5-min Rain = 0
KBWS 252355Z 06013KT 25/08 A3005 RMK A01 T02540079  RH  033%=      5-min Rain = 0
KBWS 260000Z 06013G18KT 25/08 A3006 RMK A01 T02530084  RH  035%=      5-min Rain = 0
KBWS 260005Z 05014KT 25/08 A3006 RMK A01 T02510082  RH  034%=      5-min Rain = 0
KBWS 260010Z 05014KT 25/08 A3006 RMK A01 T02510078  RH  034%=      5-min Rain = 0
KBWS 260015Z 05015G20KT 25/09 A3006 RMK A01 T02490086  RH  036%=      5-min Rain = 0
KBWS 260020Z 05016KT 25/09 A3006 RMK A01 T02470088  RH  037%=      5-min Rain = 0
KBWS 260025Z 06014G19KT 25/09 A3006 RMK A01 T02460090  RH  038%=      5-min Rain = 0
KBWS 260030Z 06014KT 24/10 A3007 RMK A01 T02430095  RH  040%=      5-min Rain = 0
KBWS 260035Z 06015KT 24/09 A3007 RMK A01 T02420092  RH  039%=      5-min Rain = 0
KBWS 260040Z 06015KT 24/09 A3007 RMK A01 T02400091  RH  039%=      5-min Rain = 0
KBWS 260045Z 05012KT 24/09 A3007 RMK A01 T02390091  RH  040%=      5-min Rain = 0
KBWS 260050Z 06013KT 24/09 A3007 RMK A01 T02360093  RH  041%=      5-min Rain = 0
KBWS 260055Z 05013KT 24/09 A3007 RMK A01 T02350091  RH  041%=      5-min Rain = 0
KBWS 260100Z 05014KT 23/09 A3008 RMK A01 T02340091  RH  041%=      5-min Rain = 0
KBWS 260105Z 06012KT 23/09 A3008 RMK A01 T02310093  RH  042%=      5-min Rain = 0
KBWS 260110Z 06012KT 23/09 A3008 RMK A01 T02290093  RH  043%=      5-min Rain = 0
KBWS 260115Z 05012KT 23/09 A3008 RMK A01 T02270092  RH  043%=      5-min Rain = 0
KBWS 260120Z 05012KT 23/09 A3008 RMK A01 T02250092  RH  043%=      5-min Rain = 0
KBWS 260125Z 05011KT 22/09 A3009 RMK A01 T02220093  RH  045%=      5-min Rain = 0
KBWS 260130Z 05010KT 22/09 A3009 RMK A01 T02190093  RH  045%=      5-min Rain = 0
KBWS 260135Z 06010KT 22/10 A3009 RMK A01 T02160095  RH  047%=      5-min Rain = 0
KBWS 260140Z 06010KT 22/09 A3009 RMK A01 T02150093  RH  047%=      5-min Rain = 0
KBWS 260145Z 06009KT 21/10 A301 RMK A01 T02120096  RH  048%=      5-min Rain = 0
KBWS 260150Z 07008KT 21/10 A301 RMK A01 T02060100  RH  051%=      5-min Rain = 0
KBWS 260155Z 06009KT 20/10 A301 RMK A01 T02040099  RH  052%=      5-min Rain = 0
KBWS 260200Z 06009KT 20/10 A3011 RMK A01 T02040102  RH  053%=      5-min Rain = 0
KBWS 260205Z 06009KT 20/10 A3011 RMK A01 T02020102  RH  053%=      5-min Rain = 0
KBWS 260210Z 07009KT 20/10 A3011 RMK A01 T02010103  RH  054%=      5-min Rain = 0
KBWS 260215Z 07010KT 20/10 A3011 RMK A01 T02000102  RH  054%=      5-min Rain = 0
KBWS 260220Z 07009KT 20/10 A3012 RMK A01 T01990102  RH  055%=      5-min Rain = 0
KBWS 260225Z 07009KT 20/10 A3012 RMK A01 T01980099  RH  054%=      5-min Rain = 0
KBWS 260230Z 07009KT 20/10 A3012 RMK A01 T01950097  RH  054%=      5-min Rain = 0
KBWS 260235Z 07009KT 19/10 A3012 RMK A01 T01930097  RH  055%=      5-min Rain = 0
KBWS 260240Z 07009KT 19/10 A3013 RMK A01 T01920097  RH  055%=      5-min Rain = 0
KBWS 260245Z 07009KT 19/10 A3013 RMK A01 T01900096  RH  055%=      5-min Rain = 0
KBWS 260250Z 07008KT 19/10 A3013 RMK A01 T01890098  RH  056%=      5-min Rain = 0
KBWS 260255Z 07007KT 19/10 A3014 RMK A01 T01870101  RH  058%=      5-min Rain = 0
KBWS 260300Z 07007KT 19/10 A3014 RMK A01 T01850099  RH  058%=      5-min Rain = 0
KBWS 260305Z 07007KT 18/10 A3014 RMK A01 T01830097  RH  058%=      5-min Rain = 0
KBWS 260310Z 07007KT 18/10 A3015 RMK A01 T01810100  RH  060%=      5-min Rain = 0
KBWS 260315Z 07007KT 18/10 A3015 RMK A01 T01780101  RH  061%=      5-min Rain = 0
KBWS 260320Z 06008KT 18/10 A3015 RMK A01 T01790100  RH  061%=      5-min Rain = 0
KBWS 260325Z 05008KT 18/10 A3015 RMK A01 T01800098  RH  060%=      5-min Rain = 0
KBWS 260330Z 06008KT 18/10 A3015 RMK A01 T01810099  RH  060%=      5-min Rain = 0
KBWS 260335Z 06009KT 18/10 A3015 RMK A01 T01810100  RH  060%=      5-min Rain = 0
KBWS 260340Z 06009KT 18/10 A3016 RMK A01 T01810100  RH  060%=      5-min Rain = 0
KBWS 260345Z 06010KT 18/10 A3016 RMK A01 T01790101  RH  062%=      5-min Rain = 0
KBWS 260350Z 07009KT 18/10 A3016 RMK A01 T01770102  RH  063%=      5-min Rain = 0
KBWS 260355Z 07008KT 18/10 A3016 RMK A01 T01750102  RH  063%=      5-min Rain = 0
KBWS 260400Z 07008KT 17/10 A3017 RMK A01 T01730102  RH  064%=      5-min Rain = 0
KBWS 260405Z 07008KT 17/10 A3017 RMK A01 T01710101  RH  065%=      5-min Rain = 0
KBWS 260410Z 07008KT 17/10 A3017 RMK A01 T01700104  RH  066%=      5-min Rain = 0
KBWS 260415Z 07008KT 17/11 A3017 RMK A01 T01690105  RH  067%=      5-min Rain = 0
KBWS 260420Z 06008KT 17/11 A3017 RMK A01 T01680105  RH  067%=      5-min Rain = 0
KBWS 260425Z 06009KT 17/10 A3017 RMK A01 T01680104  RH  067%=      5-min Rain = 0
KBWS 260430Z 06009KT 17/10 A3017 RMK A01 T01680104  RH  067%=      5-min Rain = 0
KBWS 260435Z 06009KT 17/10 A3017 RMK A01 T01680104  RH  067%=      5-min Rain = 0
KBWS 260440Z 06010KT 17/10 A3017 RMK A01 T01670104  RH  067%=      5-min Rain = 0
KBWS 260445Z 06010KT 17/10 A3017 RMK A01 T01680104  RH  067%=      5-min Rain = 0
KBWS 260450Z 06010KT 17/11 A3017 RMK A01 T01680105  RH  067%=      5-min Rain = 0
KBWS 260455Z 07011KT 17/10 A3017 RMK A01 T01680104  RH  067%=      5-min Rain = 0

Page generated in 0.0136 seconds.